createdAt,value
2022-09-20T00:03:17.355Z,177.33333
2022-09-20T00:08:18.310Z,176.45283
2022-09-20T00:13:19.318Z,178.22053
2022-09-20T00:18:20.339Z,177.33333
2022-09-20T00:23:21.268Z,177.33333
2022-09-20T00:28:22.223Z,178.22053
2022-09-20T00:33:23.161Z,178.22053
2022-09-20T00:38:24.164Z,178.22053
2022-09-20T00:43:25.158Z,178.22053
2022-09-20T00:48:26.103Z,178.22053
2022-09-20T00:53:27.057Z,178.22053
2022-09-20T00:58:28.027Z,179.1145
2022-09-20T01:03:28.947Z,179.1145
2022-09-20T01:08:30.377Z,179.1145
2022-09-20T01:13:31.293Z,179.1145
2022-09-20T01:18:32.206Z,178.22053
2022-09-20T01:23:33.194Z,178.22053
2022-09-20T01:28:34.326Z,178.22053
2022-09-20T01:33:35.245Z,179.1145
2022-09-20T01:38:36.150Z,180.92308
2022-09-20T01:43:37.071Z,180.92308
2022-09-20T01:48:37.998Z,181.83784
2022-09-20T01:53:39.009Z,180.92308
2022-09-20T01:58:39.917Z,180.92308
2022-09-20T02:03:40.816Z,180.92308
2022-09-20T02:08:41.767Z,180.92308
2022-09-20T02:13:42.688Z,180.92308
2022-09-20T02:18:43.601Z,180.01533
2022-09-20T02:23:44.521Z,180.01533
2022-09-20T02:28:45.464Z,180.01533
2022-09-20T02:33:46.389Z,180.01533
2022-09-20T02:38:47.341Z,180.01533
2022-09-20T02:43:48.281Z,180.01533
2022-09-20T02:48:49.277Z,180.01533
2022-09-20T02:53:50.245Z,180.01533
2022-09-20T02:58:51.197Z,180.01533
2022-09-20T03:03:52.092Z,180.01533
2022-09-20T03:08:53.069Z,180.01533
2022-09-20T03:13:54.046Z,180.01533
2022-09-20T03:18:54.955Z,179.1145
2022-09-20T03:23:56.089Z,179.1145
2022-09-20T03:28:57.000Z,178.22053
2022-09-20T03:33:57.968Z,178.22053
2022-09-20T03:38:58.951Z,178.22053
2022-09-20T03:43:59.887Z,178.22053
2022-09-20T03:49:00.797Z,178.22053
2022-09-20T03:54:01.963Z,178.22053
2022-09-20T03:59:02.878Z,177.33333
2022-09-20T04:04:03.763Z,177.33333
2022-09-20T04:09:04.711Z,178.22053
2022-09-20T04:14:10.617Z,177.33333
2022-09-20T04:19:12.469Z,178.22053
2022-09-20T04:24:13.398Z,177.33333
2022-09-20T04:29:14.296Z,178.22053
2022-09-20T04:34:15.234Z,177.33333
2022-09-20T04:39:16.170Z,178.22053
2022-09-20T04:44:17.120Z,177.33333
2022-09-20T04:49:17.997Z,176.45283
2022-09-20T04:54:18.912Z,176.45283
2022-09-20T04:59:19.821Z,176.45283
2022-09-20T05:04:20.735Z,176.45283
2022-09-20T05:09:21.707Z,176.45283
2022-09-20T05:14:22.683Z,176.45283
2022-09-20T05:19:23.824Z,177.33333
2022-09-20T05:24:24.708Z,176.45283
2022-09-20T05:29:25.611Z,176.45283
2022-09-20T05:34:26.550Z,175.57895
2022-09-20T05:39:27.504Z,174.71161
2022-09-20T05:44:28.409Z,174.71161
2022-09-20T05:49:29.478Z,174.71161
2022-09-20T05:54:30.747Z,175.57895
2022-09-20T05:59:31.678Z,174.71161
2022-09-20T06:04:32.639Z,173.85075
2022-09-20T06:09:33.581Z,175.57895
2022-09-20T06:14:34.519Z,175.57895
2022-09-20T06:19:35.454Z,175.57895
2022-09-20T06:24:36.362Z,175.57895
2022-09-20T06:29:37.324Z,174.71161
2022-09-20T06:34:38.237Z,173.85075
2022-09-20T06:39:39.229Z,172.99628
2022-09-20T06:44:40.171Z,172.14815
2022-09-20T06:49:41.134Z,172.14815
2022-09-20T06:54:42.066Z,172.14815
2022-09-20T06:59:42.976Z,172.99628
2022-09-20T07:04:43.924Z,172.99628
2022-09-20T07:09:44.859Z,172.14815
2022-09-20T07:14:45.818Z,172.99628
2022-09-20T07:19:46.793Z,172.99628
2022-09-20T07:24:47.750Z,171.30627
2022-09-20T07:29:48.788Z,172.99628
2022-09-20T07:34:49.683Z,172.99628
2022-09-20T07:39:50.709Z,171.30627
2022-09-20T07:44:51.650Z,170.47059
2022-09-20T07:49:52.577Z,168.81752
2022-09-20T07:54:53.634Z,168.0
2022-09-20T07:59:54.715Z,168.0
2022-09-20T08:04:55.647Z,168.0
2022-09-20T08:09:56.610Z,167.18841
2022-09-20T08:14:57.507Z,166.38267
2022-09-20T08:19:58.448Z,164.78853
2022-09-20T08:24:59.488Z,164.78853
2022-09-20T08:30:00.408Z,164.78853
2022-09-20T08:35:01.565Z,164.78853
2022-09-20T08:40:02.639Z,164.78853
2022-09-20T08:45:03.634Z,168.0
2022-09-20T08:50:09.863Z,165.58273
2022-09-20T08:55:12.043Z,164.0
2022-09-20T09:00:12.958Z,164.0
2022-09-20T09:05:13.944Z,164.0
2022-09-20T09:10:14.878Z,163.21708
2022-09-20T09:15:17.597Z,162.43972
2022-09-20T09:20:18.734Z,164.78853
2022-09-20T09:25:19.706Z,164.78853
2022-09-20T09:30:20.656Z,161.66784
2022-09-20T09:35:21.586Z,160.90141
2022-09-20T09:40:22.599Z,160.90141
2022-09-20T09:45:23.597Z,161.66784
2022-09-20T09:50:24.543Z,160.14035
2022-09-20T09:55:25.449Z,157.14879
2022-09-20T10:00:26.361Z,157.14879
2022-09-20T10:05:27.328Z,159.38462
2022-09-20T10:10:28.354Z,157.88889
2022-09-20T10:15:29.262Z,160.14035
2022-09-20T10:20:30.669Z,160.90141
2022-09-20T10:25:31.613Z,163.21708
2022-09-20T10:30:32.633Z,157.88889
2022-09-20T10:35:33.716Z,160.90141
2022-09-20T10:40:34.966Z,160.14035
2022-09-20T10:46:03.760Z,161.66784
2022-09-20T10:51:15.380Z,164.78853
2022-09-20T10:56:16.324Z,163.21708
2022-09-20T11:01:17.282Z,162.43972
2022-09-20T11:06:18.245Z,162.43972
2022-09-20T11:11:19.335Z,162.43972
2022-09-20T11:16:20.278Z,165.58273
2022-09-20T11:21:21.270Z,164.78853
2022-09-20T11:26:22.389Z,164.78853
2022-09-20T11:31:23.395Z,164.0
2022-09-20T11:36:24.455Z,164.78853
2022-09-20T11:41:25.405Z,168.81752
2022-09-20T11:46:26.342Z,169.64103
2022-09-20T11:51:27.236Z,169.64103
2022-09-20T11:56:28.164Z,173.85075
2022-09-20T12:01:29.097Z,172.14815
2022-09-20T12:06:30.257Z,171.30627
2022-09-20T12:11:31.364Z,171.30627
2022-09-20T12:16:32.338Z,170.47059
2022-09-20T12:21:33.297Z,169.64103
2022-09-20T12:26:34.201Z,168.81752
2022-09-20T12:31:35.125Z,168.0
2022-09-20T12:36:36.258Z,165.58273
2022-09-20T12:41:37.248Z,165.58273
2022-09-20T12:46:38.179Z,164.0
2022-09-20T12:51:39.178Z,160.90141
2022-09-20T12:56:40.092Z,160.14035
2022-09-20T13:01:41.104Z,157.14879
2022-09-20T13:06:42.099Z,157.14879
2022-09-20T13:11:43.058Z,155.68385
2022-09-20T13:16:44.011Z,157.14879
2022-09-20T13:21:45.015Z,162.43972
2022-09-20T13:26:45.908Z,160.14035
2022-09-20T13:31:46.922Z,158.63415
2022-09-20T13:36:47.938Z,157.88889
2022-09-20T13:41:48.916Z,159.38462
2022-09-20T13:46:49.894Z,158.63415
2022-09-20T13:51:50.848Z,159.38462
2022-09-20T13:56:51.775Z,158.63415
2022-09-20T14:01:52.731Z,157.88889
2022-09-20T14:06:53.742Z,156.41379
2022-09-20T14:11:56.692Z,161.66784
2022-09-20T14:16:58.879Z,160.90141
2022-09-20T14:21:59.820Z,161.66784
2022-09-20T14:27:00.724Z,163.21708
2022-09-20T14:32:01.635Z,163.21708
2022-09-20T14:37:02.572Z,162.43972
2022-09-20T14:42:03.504Z,161.66784
2022-09-20T14:47:04.450Z,164.78853
2022-09-20T14:52:05.488Z,165.58273
2022-09-20T14:57:06.443Z,163.21708
2022-09-20T15:02:07.397Z,164.78853
2022-09-20T15:07:08.342Z,166.38267
2022-09-20T15:12:09.399Z,165.58273
2022-09-20T15:17:10.353Z,168.0
2022-09-20T15:22:11.295Z,166.38267
2022-09-20T15:27:12.213Z,164.78853
2022-09-20T15:32:13.157Z,164.0
2022-09-20T15:37:14.091Z,163.21708
2022-09-20T15:42:15.067Z,162.43972
2022-09-20T15:47:16.245Z,161.66784
2022-09-20T15:52:17.209Z,164.0
2022-09-20T15:57:18.199Z,165.58273
2022-09-20T16:02:19.149Z,168.0
2022-09-20T16:07:20.218Z,168.0
2022-09-20T16:12:21.240Z,168.0
2022-09-20T16:17:22.183Z,168.81752
2022-09-20T16:22:23.112Z,168.81752
2022-09-20T16:27:24.016Z,168.0
2022-09-20T16:32:24.954Z,167.18841
2022-09-20T16:37:25.869Z,166.38267
2022-09-20T16:42:26.781Z,166.38267
2022-09-20T16:47:27.722Z,166.38267
2022-09-20T16:52:28.640Z,167.18841
2022-09-20T16:57:29.521Z,167.18841
2022-09-20T17:02:30.721Z,167.18841
2022-09-20T17:07:31.835Z,167.18841
2022-09-20T17:12:32.766Z,167.18841
2022-09-20T17:17:33.749Z,167.18841
2022-09-20T17:22:34.682Z,167.18841
2022-09-20T17:27:35.626Z,167.18841
2022-09-20T17:32:36.563Z,167.18841
2022-09-20T17:37:37.760Z,167.18841
2022-09-20T17:42:38.763Z,167.18841
2022-09-20T17:47:39.683Z,167.18841
2022-09-20T17:52:40.613Z,167.18841
2022-09-20T17:57:41.650Z,166.38267
2022-09-20T18:02:42.564Z,166.38267
2022-09-20T18:07:43.478Z,165.58273
2022-09-20T18:12:44.461Z,165.58273
2022-09-20T18:17:45.401Z,165.58273
2022-09-20T18:22:46.315Z,165.58273
2022-09-20T18:27:47.260Z,165.58273
2022-09-20T18:32:48.205Z,165.58273
2022-09-20T18:37:49.117Z,165.58273
2022-09-20T18:42:50.133Z,164.78853
2022-09-20T18:47:51.063Z,164.78853
2022-09-20T18:52:52.014Z,164.78853
2022-09-20T18:57:52.972Z,164.78853
2022-09-20T19:02:53.910Z,164.78853
2022-09-20T19:13:00.355Z,164.78853
2022-09-20T19:18:01.399Z,164.78853
2022-09-20T19:23:02.346Z,164.78853
2022-09-20T19:28:03.296Z,164.78853
2022-09-20T19:33:04.226Z,164.78853
2022-09-20T19:38:05.149Z,164.78853
2022-09-20T19:43:06.095Z,164.78853
2022-09-20T19:48:07.019Z,164.78853
2022-09-20T19:53:07.961Z,164.78853
2022-09-20T19:58:08.924Z,164.78853
2022-09-20T20:03:09.877Z,164.78853
2022-09-20T20:08:10.842Z,165.58273
2022-09-20T20:13:11.846Z,165.58273
2022-09-20T20:18:16.482Z,165.58273
2022-09-20T20:23:17.800Z,166.38267
2022-09-20T20:28:18.713Z,166.38267
2022-09-20T20:33:19.625Z,167.18841
2022-09-20T20:38:20.538Z,166.38267
2022-09-20T20:43:21.679Z,166.38267
2022-09-20T20:48:22.560Z,166.38267
2022-09-20T20:53:23.478Z,166.38267
2022-09-20T20:58:24.390Z,166.38267
2022-09-20T21:03:25.300Z,166.38267
2022-09-20T21:08:26.223Z,167.18841
2022-09-20T21:13:27.216Z,167.18841
2022-09-20T21:18:28.188Z,168.0
2022-09-20T21:23:29.132Z,167.18841
2022-09-20T21:28:30.092Z,168.0
2022-09-20T21:33:31.320Z,168.0
2022-09-20T21:38:32.246Z,168.0
2022-09-20T21:43:33.229Z,168.0
2022-09-20T21:48:34.151Z,167.18841
2022-09-20T21:53:35.072Z,168.0
2022-09-20T21:58:36.189Z,168.81752
2022-09-20T22:03:37.101Z,168.81752
2022-09-20T22:08:38.039Z,168.81752
2022-09-20T22:13:39.030Z,168.81752
2022-09-20T22:18:39.972Z,168.81752
2022-09-20T22:23:41.103Z,168.81752
2022-09-20T22:28:42.123Z,168.81752
2022-09-20T22:33:43.115Z,169.64103
2022-09-20T22:38:44.066Z,170.47059
2022-09-20T22:43:45.066Z,170.47059
2022-09-20T22:48:45.960Z,171.30627
2022-09-20T22:53:46.895Z,171.30627
2022-09-20T22:58:47.841Z,171.30627
2022-09-20T23:03:48.813Z,171.30627
2022-09-20T23:08:49.783Z,171.30627
2022-09-20T23:13:50.728Z,170.47059
2022-09-20T23:18:51.780Z,171.30627
2022-09-20T23:23:52.734Z,171.30627
2022-09-20T23:28:53.755Z,171.30627
2022-09-20T23:33:54.734Z,171.30627
2022-09-20T23:38:55.668Z,172.14815
2022-09-20T23:43:56.713Z,172.14815
2022-09-20T23:48:57.648Z,172.14815
2022-09-20T23:53:58.611Z,172.14815
2022-09-20T23:58:59.771Z,172.14815
